createdAt,value
2023-03-06T00:00:56.603Z,61.68
2023-03-06T00:03:27.972Z,62.13
2023-03-06T00:05:58.999Z,62.91
2023-03-06T00:08:29.641Z,63.64
2023-03-06T00:10:58.358Z,63.62
2023-03-06T00:13:30.140Z,63.68
2023-03-06T00:16:00.919Z,64.25
2023-03-06T00:18:32.102Z,64.24
2023-03-06T00:21:01.557Z,64.44
2023-03-06T00:23:29.649Z,64.02
2023-03-06T00:25:57.624Z,64.55
2023-03-06T00:28:25.583Z,64.35
2023-03-06T00:30:53.567Z,64.84
2023-03-06T00:33:21.556Z,64.71
2023-03-06T00:35:49.558Z,64.53
2023-03-06T00:38:18.983Z,64.02
2023-03-06T00:40:47.018Z,64.52
2023-03-06T00:43:15.283Z,65.93
2023-03-06T00:45:43.453Z,65.25
2023-03-06T00:48:11.626Z,64.72
2023-03-06T00:50:39.823Z,65.06
2023-03-06T00:53:07.935Z,65.17
2023-03-06T00:55:37.285Z,66.20
2023-03-06T00:58:05.258Z,66.57
2023-03-06T01:00:33.250Z,66.35
2023-03-06T01:03:01.285Z,66.24
2023-03-06T01:05:29.461Z,66.35
2023-03-06T01:07:57.687Z,65.47
2023-03-06T01:10:25.654Z,65.71
2023-03-06T01:12:55.157Z,65.26
2023-03-06T01:15:23.471Z,65.19
2023-03-06T01:17:55.162Z,66.22
2023-03-06T01:20:23.504Z,66.23
2023-03-06T01:22:51.496Z,66.46
2023-03-06T01:25:19.704Z,67.01
2023-03-06T01:27:47.719Z,66.17
2023-03-06T01:30:17.281Z,65.63
2023-03-06T01:32:45.411Z,65.93
2023-03-06T01:35:13.752Z,66.94
2023-03-06T01:37:41.985Z,67.28
2023-03-06T01:40:11.727Z,66.74
2023-03-06T01:42:39.764Z,66.39
2023-03-06T01:45:29.946Z,66.18
2023-03-06T01:47:59.272Z,67.66
2023-03-06T01:50:27.288Z,66.96
2023-03-06T01:52:59.302Z,66.60
2023-03-06T01:55:32.122Z,65.48
2023-03-06T01:58:04.667Z,64.98
2023-03-06T02:00:32.848Z,66.10
2023-03-06T02:03:08.680Z,65.36
2023-03-06T02:05:36.989Z,65.45
2023-03-06T02:08:06.918Z,65.55
2023-03-06T02:10:35.485Z,65.72
2023-03-06T02:13:04.048Z,65.08
2023-03-06T02:15:32.345Z,65.22
2023-03-06T02:18:03.118Z,66.12
2023-03-06T02:20:38.176Z,67.04
2023-03-06T02:23:12.316Z,66.32
2023-03-06T02:25:44.745Z,66.21
2023-03-06T02:28:14.768Z,67.18
2023-03-06T02:30:44.440Z,67.36
2023-03-06T02:33:14.291Z,68.19
2023-03-06T02:35:49.373Z,67.60
2023-03-06T02:38:20.104Z,67.90
2023-03-06T02:40:52.180Z,68.18
2023-03-06T02:43:24.526Z,67.97
2023-03-06T02:45:53.482Z,67.77
2023-03-06T02:48:22.000Z,66.99
2023-03-06T02:50:50.805Z,66.67
2023-03-06T02:53:21.450Z,65.99
2023-03-06T02:55:51.297Z,65.56
2023-03-06T02:58:20.626Z,66.17
2023-03-06T03:00:49.958Z,65.88
2023-03-06T03:03:18.802Z,66.54
2023-03-06T03:05:46.808Z,66.22
2023-03-06T03:08:14.889Z,65.82
2023-03-06T03:10:43.089Z,65.16
2023-03-06T03:13:13.326Z,65.76
2023-03-06T03:15:41.303Z,65.78
2023-03-06T03:18:10.335Z,65.55
2023-03-06T03:20:38.445Z,65.25
2023-03-06T03:23:06.373Z,64.70
2023-03-06T03:25:34.510Z,63.94
2023-03-06T03:28:02.521Z,63.24
2023-03-06T03:30:32.118Z,63.16
2023-03-06T03:33:00.092Z,62.69
2023-03-06T03:35:28.182Z,62.95
2023-03-06T03:37:56.128Z,62.29
2023-03-06T03:40:24.206Z,61.60
2023-03-06T03:42:52.168Z,61.61
2023-03-06T03:45:20.364Z,61.72
2023-03-06T03:47:52.537Z,61.39
2023-03-06T03:50:20.874Z,61.04
2023-03-06T03:52:49.094Z,61.20
2023-03-06T03:55:17.099Z,61.09
2023-03-06T03:57:47.912Z,61.30
2023-03-06T04:00:17.103Z,61.65
2023-03-06T04:02:45.764Z,60.94
2023-03-06T04:05:16.668Z,60.99
2023-03-06T04:07:45.050Z,60.67
2023-03-06T04:10:14.424Z,60.59
2023-03-06T04:12:42.453Z,60.79
2023-03-06T04:15:11.134Z,61.46
2023-03-06T04:17:39.346Z,61.46
2023-03-06T04:20:08.382Z,60.16
2023-03-06T04:22:37.806Z,60.93
2023-03-06T04:25:06.751Z,59.85
2023-03-06T04:27:34.839Z,60.63
2023-03-06T04:30:03.021Z,60.13
2023-03-06T04:32:30.977Z,60.32
2023-03-06T04:34:59.205Z,59.69
2023-03-06T04:37:27.750Z,60.46
2023-03-06T04:39:58.195Z,60.64
2023-03-06T04:42:26.272Z,60.77
2023-03-06T04:44:54.322Z,60.32
2023-03-06T04:47:22.334Z,61.10
2023-03-06T04:49:50.554Z,60.89
2023-03-06T04:52:18.503Z,61.36
2023-03-06T04:54:46.581Z,60.72
2023-03-06T04:57:16.213Z,60.73
2023-03-06T04:59:44.285Z,61.33
2023-03-06T05:02:12.513Z,61.31
2023-03-06T05:04:40.570Z,62.04
2023-03-06T05:07:08.649Z,62.10
2023-03-06T05:09:39.065Z,61.95
2023-03-06T05:12:07.599Z,61.24
2023-03-06T05:14:37.264Z,61.56
2023-03-06T05:17:05.344Z,61.26
2023-03-06T05:19:33.304Z,61.22
2023-03-06T05:22:01.239Z,60.91
2023-03-06T05:24:29.425Z,60.92
2023-03-06T05:26:57.477Z,60.07
2023-03-06T05:29:25.627Z,60.57
2023-03-06T05:31:55.021Z,60.07
2023-03-06T05:34:23.010Z,60.61
2023-03-06T05:36:51.074Z,59.80
2023-03-06T05:39:19.062Z,59.90
2023-03-06T05:41:47.053Z,59.61
2023-03-06T05:44:15.289Z,59.99
2023-03-06T05:46:43.298Z,60.01
2023-03-06T05:49:12.847Z,59.47
2023-03-06T05:51:40.874Z,59.38
2023-03-06T05:54:09.000Z,59.41
2023-03-06T05:56:36.918Z,60.29
2023-03-06T05:59:05.010Z,60.51
2023-03-06T06:01:32.967Z,60.31
2023-03-06T06:04:00.987Z,60.66
2023-03-06T06:06:30.311Z,60.97
2023-03-06T06:08:58.228Z,60.87
2023-03-06T06:11:26.269Z,60.38
2023-03-06T06:13:54.200Z,60.28
2023-03-06T06:16:22.212Z,59.66
2023-03-06T06:18:50.187Z,59.46
2023-03-06T06:21:18.207Z,59.03
2023-03-06T06:23:47.687Z,59.26
2023-03-06T06:26:15.900Z,60.23
2023-03-06T06:28:43.979Z,59.83
2023-03-06T06:31:13.406Z,59.22
2023-03-06T06:33:42.145Z,59.05
2023-03-06T06:36:17.187Z,59.54
2023-03-06T06:38:47.144Z,59.35
2023-03-06T06:44:08.499Z,60.49
2023-03-06T06:47:20.842Z,60.48
2023-03-06T06:49:27.878Z,60.07
2023-03-06T06:51:55.996Z,60.56
2023-03-06T06:54:25.514Z,60.72
2023-03-06T06:56:53.616Z,60.70
2023-03-06T06:59:23.618Z,60.64
2023-03-06T07:01:54.011Z,60.58
2023-03-06T07:04:22.176Z,60.49
2023-03-06T07:06:50.217Z,61.29
2023-03-06T07:09:18.138Z,61.50
2023-03-06T07:11:47.415Z,61.48
2023-03-06T07:14:15.448Z,61.30
2023-03-06T07:16:43.567Z,60.06
2023-03-06T07:19:11.496Z,60.12
2023-03-06T07:21:39.491Z,60.68
2023-03-06T07:24:08.117Z,60.03
2023-03-06T07:26:36.300Z,60.23
2023-03-06T07:29:06.285Z,60.19
2023-03-06T07:31:34.287Z,59.50
2023-03-06T07:34:04.816Z,59.20
2023-03-06T07:36:34.651Z,59.95
2023-03-06T07:39:02.722Z,59.93
2023-03-06T07:41:30.710Z,59.06
2023-03-06T07:43:58.777Z,59.56
2023-03-06T07:46:28.381Z,59.41
2023-03-06T07:48:56.489Z,58.89
2023-03-06T07:51:24.455Z,58.62
2023-03-06T07:53:52.400Z,59.35
2023-03-06T07:56:20.656Z,59.66
2023-03-06T07:58:49.001Z,59.04
2023-03-06T08:01:19.783Z,58.53
2023-03-06T08:03:50.219Z,58.12
2023-03-06T08:06:20.384Z,57.93
2023-03-06T08:08:49.967Z,58.60
2023-03-06T08:11:20.267Z,58.94
2023-03-06T08:13:49.353Z,59.40
2023-03-06T08:16:18.446Z,59.11
2023-03-06T08:18:46.758Z,58.66
2023-03-06T08:21:17.737Z,59.14
2023-03-06T08:23:46.803Z,58.57
2023-03-06T08:26:17.626Z,58.26
2023-03-06T08:28:46.200Z,57.05
2023-03-06T08:31:27.318Z,57.13
2023-03-06T08:33:56.745Z,56.22
2023-03-06T08:36:26.185Z,55.73
2023-03-06T08:38:54.507Z,55.68
2023-03-06T08:41:22.673Z,55.73
2023-03-06T08:43:51.311Z,54.37
2023-03-06T08:46:20.829Z,55.32
2023-03-06T08:48:49.256Z,54.88
2023-03-06T08:51:19.015Z,55.53
2023-03-06T08:53:48.853Z,54.89
2023-03-06T08:56:18.240Z,54.47
2023-03-06T08:58:46.365Z,54.65
2023-03-06T09:01:15.740Z,53.53
2023-03-06T09:03:44.021Z,53.04
2023-03-06T09:06:12.545Z,52.17
2023-03-06T09:08:43.107Z,51.60
2023-03-06T09:11:13.337Z,50.99
2023-03-06T09:13:42.319Z,50.59
2023-03-06T09:16:12.158Z,51.46
2023-03-06T09:18:40.669Z,50.84
2023-03-06T09:21:10.673Z,50.49
2023-03-06T09:23:40.089Z,50.63
2023-03-06T09:26:08.730Z,50.59
2023-03-06T09:28:40.845Z,48.92
2023-03-06T09:31:10.902Z,48.67
2023-03-06T09:33:39.442Z,49.02
2023-03-06T09:36:09.552Z,49.51
2023-03-06T10:17:18.870Z,42.90
2023-03-06T10:19:47.776Z,42.50
2023-03-06T10:22:26.190Z,43.35
2023-03-06T10:25:00.639Z,44.45
2023-03-06T10:27:39.375Z,43.31
2023-03-06T10:30:25.990Z,44.86
2023-03-06T10:32:58.857Z,44.66
2023-03-06T10:35:31.088Z,46.13
2023-03-06T10:38:03.729Z,45.82
2023-03-06T10:40:39.677Z,45.32
2023-03-06T10:43:12.398Z,44.97
2023-03-06T10:45:51.521Z,44.38
2023-03-06T10:48:23.420Z,43.00
2023-03-06T10:50:55.473Z,42.38
2023-03-06T10:53:26.192Z,42.30
2023-03-06T10:55:57.146Z,41.89
2023-03-06T10:58:27.895Z,41.66
2023-03-06T11:01:06.997Z,41.57
2023-03-06T11:03:39.517Z,41.47
2023-03-06T11:06:13.088Z,41.90
2023-03-06T11:08:43.382Z,42.10
2023-03-06T11:11:14.485Z,41.73
2023-03-06T11:13:45.069Z,41.76
2023-03-06T11:16:28.521Z,41.16
2023-03-06T11:18:59.845Z,41.12
2023-03-06T11:21:31.698Z,42.14
2023-03-06T11:24:05.552Z,42.21
2023-03-06T11:26:42.697Z,41.42
2023-03-06T11:29:29.390Z,40.81
2023-03-06T11:32:05.401Z,40.47
2023-03-06T11:34:42.805Z,41.13
2023-03-06T11:37:19.102Z,40.72
2023-03-06T11:39:54.819Z,40.68
2023-03-06T11:42:28.038Z,40.89
2023-03-06T11:45:09.951Z,40.98
2023-03-06T11:47:42.338Z,40.89
2023-03-06T11:50:24.021Z,42.81
2023-03-06T11:52:56.221Z,43.32
2023-03-06T11:55:36.845Z,43.00
2023-03-06T11:58:23.473Z,42.30
2023-03-06T12:00:57.173Z,42.50
2023-03-06T12:03:57.820Z,41.85
2023-03-06T12:06:37.950Z,41.59
2023-03-06T12:09:22.068Z,41.04
2023-03-06T12:12:01.435Z,40.50
2023-03-06T12:33:24.237Z,40.79
2023-03-06T12:36:01.491Z,40.59
2023-03-06T12:38:50.066Z,40.04
2023-03-06T12:41:26.786Z,39.42
2023-03-06T12:44:21.253Z,39.65
2023-03-06T12:46:54.694Z,37.96
2023-03-06T12:49:32.523Z,38.28
2023-03-06T12:52:03.316Z,37.74
2023-03-06T12:54:34.652Z,38.64
2023-03-06T12:57:02.751Z,38.28
2023-03-06T12:59:44.396Z,39.26
2023-03-06T13:03:06.092Z,38.95
2023-03-06T13:06:04.905Z,37.82
2023-03-06T13:09:06.233Z,38.62
2023-03-06T13:12:11.068Z,38.56
2023-03-06T13:14:57.562Z,37.94
2023-03-06T13:17:37.179Z,38.28
2023-03-06T13:20:41.746Z,38.08
2023-03-06T13:23:47.524Z,38.37
2023-03-06T13:26:48.688Z,38.15
2023-03-06T13:29:53.643Z,39.15
2023-03-06T13:32:31.846Z,39.60
2023-03-06T13:34:59.952Z,38.18
2023-03-06T13:37:39.402Z,37.65
2023-03-06T13:40:40.746Z,37.64
2023-03-06T13:43:25.189Z,37.27
2023-03-06T13:45:54.673Z,35.96
2023-03-06T13:48:43.756Z,35.38
2023-03-06T13:51:24.725Z,35.05
2023-03-06T13:54:24.309Z,35.17
2023-03-06T13:57:17.747Z,36.23
2023-03-06T14:00:18.995Z,37.17
2023-03-06T14:03:25.245Z,38.41
2023-03-06T14:05:53.947Z,38.51
2023-03-06T14:08:24.196Z,39.12
2023-03-06T14:11:01.905Z,38.32
2023-03-06T14:13:45.230Z,37.96
2023-03-06T14:16:22.178Z,38.01
2023-03-06T14:18:53.552Z,38.74
2023-03-06T14:21:30.523Z,38.84
2023-03-06T14:24:01.301Z,39.16
2023-03-06T14:26:33.786Z,39.67
2023-03-06T14:29:03.099Z,39.40
2023-03-06T14:31:33.935Z,40.29
2023-03-06T14:34:05.274Z,40.52
2023-03-06T14:36:36.997Z,41.03
2023-03-06T14:39:09.900Z,40.67
2023-03-06T14:41:39.254Z,41.02
2023-03-06T14:44:16.664Z,40.57
2023-03-06T14:46:45.376Z,40.41
2023-03-06T14:49:16.422Z,40.00
2023-03-06T14:51:47.783Z,40.10
2023-03-06T14:54:19.677Z,39.59
2023-03-06T14:56:51.609Z,40.26
2023-03-06T14:59:22.194Z,40.35
2023-03-06T15:01:52.698Z,40.27
2023-03-06T15:04:27.016Z,39.61
2023-03-06T15:06:56.848Z,40.38
2023-03-06T15:09:29.532Z,39.81
2023-03-06T15:11:59.874Z,39.77
2023-03-06T15:14:32.531Z,41.48
2023-03-06T15:17:21.888Z,40.83
2023-03-06T15:19:54.408Z,41.06
2023-03-06T15:22:28.289Z,41.00
2023-03-06T15:25:16.753Z,40.95
2023-03-06T15:27:49.834Z,40.70
2023-03-06T15:30:27.399Z,40.64
2023-03-06T15:33:11.687Z,40.48
2023-03-06T15:35:41.447Z,40.89
2023-03-06T15:38:25.397Z,40.28
2023-03-06T15:54:25.470Z,41.19
2023-03-06T15:56:54.314Z,41.15
2023-03-06T15:59:25.841Z,41.56
2023-03-06T16:01:55.191Z,41.05
2023-03-06T16:04:23.901Z,40.72
2023-03-06T16:06:52.533Z,40.87
2023-03-06T16:09:20.569Z,41.17
2023-03-06T16:11:50.084Z,41.54
2023-03-06T16:14:21.526Z,41.10
2023-03-06T16:16:50.223Z,41.17
2023-03-06T16:19:27.149Z,41.22
2023-03-06T16:21:55.828Z,41.38
2023-03-06T16:24:26.177Z,40.92
2023-03-06T16:26:56.371Z,41.71
2023-03-06T16:29:29.162Z,41.65
2023-03-06T16:32:01.909Z,42.02
2023-03-06T16:34:30.122Z,42.87
2023-03-06T16:36:58.068Z,42.45
2023-03-06T16:39:26.268Z,42.75
2023-03-06T16:41:56.633Z,42.88
2023-03-06T16:44:24.705Z,42.72
2023-03-06T16:46:52.754Z,43.50
2023-03-06T16:49:22.688Z,43.09
2023-03-06T16:51:51.082Z,43.21
2023-03-06T16:54:28.220Z,43.41
2023-03-06T16:56:57.616Z,43.01
2023-03-06T16:59:26.022Z,43.54
2023-03-06T17:01:54.148Z,43.79
2023-03-06T17:04:22.111Z,42.95
2023-03-06T17:06:50.022Z,44.05
2023-03-06T17:09:19.633Z,43.18
2023-03-06T17:11:48.486Z,43.60
2023-03-06T17:14:18.996Z,44.04
2023-03-06T17:16:47.855Z,43.91
2023-03-06T17:19:16.314Z,44.29
2023-03-06T17:21:45.102Z,44.70
2023-03-06T17:24:15.371Z,45.17
2023-03-06T17:26:44.429Z,45.37
2023-03-06T17:29:12.785Z,45.46
2023-03-06T17:31:43.030Z,45.31
2023-03-06T17:34:13.679Z,45.24
2023-03-06T17:36:41.637Z,46.06
2023-03-06T17:39:10.333Z,45.87
2023-03-06T17:41:38.358Z,45.95
2023-03-06T17:44:06.697Z,46.59
2023-03-06T17:46:35.006Z,46.81
2023-03-06T17:49:04.457Z,46.36
2023-03-06T17:51:32.395Z,46.23
2023-03-06T17:54:00.391Z,46.76
2023-03-06T17:56:30.911Z,46.86
2023-03-06T17:58:59.710Z,46.77
2023-03-06T18:01:29.986Z,46.71
2023-03-06T18:03:58.524Z,47.37
2023-03-06T18:06:30.190Z,47.56
2023-03-06T18:08:58.480Z,47.82
2023-03-06T18:11:26.552Z,47.88
2023-03-06T18:13:54.843Z,48.42
2023-03-06T18:16:24.700Z,48.78
2023-03-06T18:18:53.673Z,49.09
2023-03-06T18:21:24.670Z,49.25
2023-03-06T18:23:54.675Z,49.10
2023-03-06T18:26:24.788Z,49.96
2023-03-06T18:28:54.915Z,49.63
2023-03-06T18:31:25.567Z,49.92
2023-03-06T18:33:55.085Z,50.35
2023-03-06T18:36:24.755Z,50.38
2023-03-06T18:38:54.660Z,50.75
2023-03-06T18:41:23.619Z,51.57
2023-03-06T18:43:53.227Z,51.41
2023-03-06T18:46:21.278Z,51.94
2023-03-06T18:48:49.273Z,51.89
2023-03-06T18:51:19.348Z,52.02
2023-03-06T18:53:48.785Z,52.41
2023-03-06T18:56:20.140Z,53.17
2023-03-06T18:58:48.794Z,53.64
2023-03-06T19:01:16.915Z,53.43
2023-03-06T19:03:45.046Z,53.91
2023-03-06T19:06:16.520Z,54.18
2023-03-06T19:08:44.855Z,54.93
2023-03-06T19:11:14.537Z,54.61
2023-03-06T19:13:44.698Z,54.16
2023-03-06T19:16:18.737Z,54.17
2023-03-06T19:18:46.705Z,54.52
2023-03-06T19:21:16.471Z,55.07
2023-03-06T19:23:44.841Z,55.22
2023-03-06T19:26:12.822Z,55.13
2023-03-06T19:28:43.722Z,55.43
2023-03-06T19:31:13.776Z,55.73
2023-03-06T19:33:43.510Z,55.94
2023-03-06T19:36:12.795Z,56.00
2023-03-06T19:38:41.355Z,56.78
2023-03-06T19:41:13.594Z,56.26
2023-03-06T19:43:44.451Z,57.17
2023-03-06T19:46:13.796Z,57.63
2023-03-06T19:48:42.224Z,57.05
2023-03-06T19:51:11.065Z,57.67
2023-03-06T19:53:39.885Z,57.70
2023-03-06T19:56:09.668Z,57.64
2023-03-06T19:58:37.747Z,57.62
2023-03-06T20:01:09.509Z,58.49
2023-03-06T20:03:37.955Z,59.72
2023-03-06T20:06:09.152Z,59.10
2023-03-06T20:08:37.234Z,59.52
2023-03-06T20:11:05.591Z,59.76
2023-03-06T20:13:33.837Z,59.18
2023-03-06T20:16:06.620Z,58.75
2023-03-06T20:18:35.957Z,58.93
2023-03-06T20:21:05.655Z,58.34
2023-03-06T20:23:34.633Z,58.00
2023-03-06T20:26:04.249Z,58.29
2023-03-06T20:28:32.312Z,57.97
2023-03-06T20:31:00.572Z,59.65
2023-03-06T20:33:28.560Z,60.07
2023-03-06T20:35:57.977Z,59.77
2023-03-06T20:38:26.185Z,59.11
2023-03-06T20:40:55.987Z,59.51
2023-03-06T20:43:23.937Z,60.21
2023-03-06T20:45:59.570Z,59.08
2023-03-06T20:48:27.633Z,59.05
2023-03-06T20:51:05.789Z,59.62
2023-03-06T20:53:35.212Z,58.80
2023-03-06T20:56:03.331Z,59.06
2023-03-06T20:58:32.629Z,60.55
2023-03-06T21:01:02.418Z,59.77
2023-03-06T21:03:30.596Z,60.05
2023-03-06T21:05:58.759Z,59.57
2023-03-06T21:08:28.107Z,59.26
2023-03-06T21:10:56.020Z,59.06
2023-03-06T21:13:24.159Z,59.22
2023-03-06T21:15:52.153Z,59.99
2023-03-06T21:18:20.211Z,59.48
2023-03-06T21:20:48.262Z,60.83
2023-03-06T21:23:16.232Z,59.87
2023-03-06T21:25:49.846Z,60.31
2023-03-06T21:28:18.752Z,60.49
2023-03-06T21:30:47.331Z,60.10
2023-03-06T21:33:16.185Z,60.11
2023-03-06T21:35:46.018Z,60.29
2023-03-06T21:38:14.828Z,60.51
2023-03-06T21:40:44.694Z,61.49
2023-03-06T21:43:15.850Z,61.07
2023-03-06T21:45:44.930Z,61.93
2023-03-06T21:48:13.360Z,61.93
2023-03-06T21:50:41.425Z,61.13
2023-03-06T21:53:10.313Z,62.47
2023-03-06T21:55:40.534Z,61.68
2023-03-06T21:58:09.551Z,61.42
2023-03-06T22:00:40.686Z,61.56
2023-03-06T22:03:08.669Z,62.36
2023-03-06T22:05:36.624Z,61.83
2023-03-06T22:08:04.555Z,62.33
2023-03-06T22:10:32.685Z,61.93
2023-03-06T22:13:00.616Z,62.93
2023-03-06T22:15:28.602Z,62.57
2023-03-06T22:17:58.206Z,62.45
2023-03-06T22:20:26.153Z,61.25
2023-03-06T22:22:54.101Z,60.98
2023-03-06T22:25:22.176Z,60.85
2023-03-06T22:27:50.096Z,61.59
2023-03-06T22:30:18.978Z,61.29
2023-03-06T22:32:46.969Z,61.85
2023-03-06T22:35:16.499Z,61.40
2023-03-06T22:37:44.493Z,61.08
2023-03-06T22:40:13.444Z,61.34
2023-03-06T22:42:41.526Z,62.20
2023-03-06T22:45:10.689Z,61.47
2023-03-06T22:47:38.863Z,62.41
2023-03-06T22:50:07.580Z,61.68
2023-03-06T22:52:36.969Z,61.88
2023-03-06T22:55:05.665Z,60.69
2023-03-06T22:57:33.649Z,61.47
2023-03-06T23:00:01.723Z,62.06
2023-03-06T23:02:34.880Z,62.13
2023-03-06T23:05:02.939Z,61.66
2023-03-06T23:07:30.937Z,61.97
2023-03-06T23:10:00.611Z,61.69
2023-03-06T23:12:28.624Z,62.70
2023-03-06T23:14:56.590Z,62.13
2023-03-06T23:17:24.982Z,61.96
2023-03-06T23:19:53.185Z,61.57
2023-03-06T23:22:21.158Z,61.94
2023-03-06T23:24:49.500Z,61.57
2023-03-06T23:27:19.638Z,61.13
2023-03-06T23:29:50.566Z,61.26
2023-03-06T23:32:18.586Z,61.50
2023-03-06T23:34:49.017Z,61.45
2023-03-06T23:37:19.860Z,61.02
2023-03-06T23:39:48.039Z,60.86
2023-03-06T23:42:16.061Z,60.55
2023-03-06T23:44:45.391Z,60.48
2023-03-06T23:47:13.746Z,61.25
2023-03-06T23:49:41.724Z,60.65
2023-03-06T23:52:09.727Z,59.80
2023-03-06T23:54:37.724Z,60.65
2023-03-06T23:57:05.656Z,59.60
2023-03-06T23:59:33.627Z,60.06
